PWSweather.com
Personal Weather Stations
Station Observations
948974
Valtournenche, AostaIT 11028

ValtournencheAostaIT 11028

Lat: 45.877222, Lon: 7.625556

Elevation: 5085.3018

Station Type: PCE-FWS 20

http://www.cdso.it

High Low Average
Temperature 63.5°F17.5°C 36.3°F2.4°C 48.2°F9.0°C
Dew Point 22.0°F-5.6°C 9.4°F-12.6°C 16.5°F-8.6°C
Winds 9.0 mph 14.5 kmh Calm Calm 3.0 mph E4.8 kmh E
Wind Gusts 12.0 mph19.3 kmh 2.0 mph3.2 kmh 5.0 mph8.0 kmh
Humidity 41% 18% 29%
Pressure 30.47 in1031.8 mb 30.07 in1018.3 mb -
Precipitation 0.00 in0.0 mm - -
Hour Temp Dew Point Humidity Winds Wind Gusts Pressure Precip Precip Rate Daily Precip Total
12:04 AM 40.3°F4.6°C 16.1°F-8.8°C 37% 3.0 mph 4.8 kmh 4.0 mph6.4 kmh 30.45 in1031.2 mb 0.00 in0.0 mm 0.00 in0.0 mm 0.00 in0.0 mm
12:25 AM 40.6°F4.8°C 14.5°F-9.7°C 34% 4.0 mph 6.4 kmh 5.0 mph8.0 kmh 30.43 in1030.5 mb 0.00 in0.0 mm 0.00 in0.0 mm 0.00 in0.0 mm
12:46 AM 39.6°F4.2°C 14.8°F-9.6°C 36% 2.0 mph 3.2 kmh 4.0 mph6.4 kmh 30.45 in1031.2 mb 0.00 in0.0 mm 0.00 in0.0 mm 0.00 in0.0 mm
01:07 AM 38.8°F3.8°C 15.4°F-9.2°C 38% 3.0 mph 4.8 kmh 4.0 mph6.4 kmh 30.46 in1031.5 mb 0.00 in0.0 mm 0.00 in0.0 mm 0.00 in0.0 mm
01:28 AM 37.9°F3.3°C 16.4°F-8.7°C 41% 3.0 mph 4.8 kmh 4.0 mph6.4 kmh 30.47 in1031.8 mb 0.00 in0.0 mm 0.00 in0.0 mm 0.00 in0.0 mm
01:49 AM 38.5°F3.6°C 15.1°F-9.4°C 38% 2.0 mph 3.2 kmh 3.0 mph4.8 kmh 30.45 in1031.2 mb 0.00 in0.0 mm 0.00 in0.0 mm 0.00 in0.0 mm
02:10 AM 39.7°F4.3°C 13.7°F-10.2°C 34% 3.0 mph 4.8 kmh 4.0 mph6.4 kmh 30.43 in1030.5 mb 0.00 in0.0 mm 0.00 in0.0 mm 0.00 in0.0 mm
02:31 AM 38.3°F3.5°C 14.9°F-9.5°C 38% 2.0 mph 3.2 kmh 2.0 mph3.2 kmh 30.45 in1031.2 mb 0.00 in0.0 mm 0.00 in0.0 mm 0.00 in0.0 mm
02:52 AM 39.2°F4.0°C 11.8°F-11.2°C 32% 3.0 mph 4.8 kmh 4.0 mph6.4 kmh 30.43 in1030.5 mb 0.00 in0.0 mm 0.00 in0.0 mm 0.00 in0.0 mm
03:13 AM 38.7°F3.7°C 13.4°F-10.3°C 35% 2.0 mph 3.2 kmh 3.0 mph4.8 kmh 30.42 in1030.1 mb 0.00 in0.0 mm 0.00 in0.0 mm 0.00 in0.0 mm
03:34 AM 38.7°F3.7°C 14.0°F-10.0°C 36% 2.0 mph 3.2 kmh 3.0 mph4.8 kmh 30.43 in1030.5 mb 0.00 in0.0 mm 0.00 in0.0 mm 0.00 in0.0 mm
03:55 AM 37.9°F3.3°C 14.0°F-10.0°C 37% 2.0 mph 3.2 kmh 4.0 mph6.4 kmh 30.43 in1030.5 mb 0.00 in0.0 mm 0.00 in0.0 mm 0.00 in0.0 mm
04:16 AM 37.8°F3.2°C 13.9°F-10.1°C 37% 2.0 mph 3.2 kmh 3.0 mph4.8 kmh 30.43 in1030.5 mb 0.00 in0.0 mm 0.00 in0.0 mm 0.00 in0.0 mm
04:37 AM 37.8°F3.2°C 13.2°F-10.4°C 36% 4.0 mph 6.4 kmh 4.0 mph6.4 kmh 30.43 in1030.5 mb 0.00 in0.0 mm 0.00 in0.0 mm 0.00 in0.0 mm
04:58 AM 37.9°F3.3°C 12.8°F-10.7°C 35% 2.0 mph 3.2 kmh 3.0 mph4.8 kmh 30.42 in1030.1 mb 0.00 in0.0 mm 0.00 in0.0 mm 0.00 in0.0 mm
05:19 AM 37.4°F3.0°C 12.3°F-10.9°C 35% 2.0 mph 3.2 kmh 3.0 mph4.8 kmh 30.42 in1030.1 mb 0.00 in0.0 mm 0.00 in0.0 mm 0.00 in0.0 mm
05:40 AM 36.7°F2.6°C 9.6°F-12.4°C 32% 3.0 mph 4.8 kmh 4.0 mph6.4 kmh 30.43 in1030.5 mb 0.00 in0.0 mm 0.00 in0.0 mm 0.00 in0.0 mm
06:01 AM 36.5°F2.5°C 10.2°F-12.1°C 33% 2.0 mph 3.2 kmh 2.0 mph3.2 kmh 30.43 in1030.5 mb 0.00 in0.0 mm 0.00 in0.0 mm 0.00 in0.0 mm
06:22 AM 36.3°F2.4°C 10.0°F-12.2°C 33% 3.0 mph 4.8 kmh 4.0 mph6.4 kmh 30.43 in1030.5 mb 0.00 in0.0 mm 0.00 in0.0 mm 0.00 in0.0 mm
06:43 AM 38.5°F3.6°C 11.2°F-11.6°C 32% 2.0 mph 3.2 kmh 3.0 mph4.8 kmh 30.41 in1029.8 mb 0.00 in0.0 mm 0.00 in0.0 mm 0.00 in0.0 mm
07:04 AM 37.2°F2.9°C 9.4°F-12.6°C 31% 4.0 mph 6.4 kmh 4.0 mph6.4 kmh 30.43 in1030.5 mb 0.00 in0.0 mm 0.00 in0.0 mm 0.00 in0.0 mm
07:25 AM 40.1°F4.5°C 9.6°F-12.4°C 28% 4.0 mph 6.4 kmh 5.0 mph8.0 kmh 30.39 in1029.1 mb 0.00 in0.0 mm 0.00 in0.0 mm 0.00 in0.0 mm
07:46 AM 39.0°F3.9°C 11.0°F-11.7°C 31% 2.0 mph 3.2 kmh 3.0 mph4.8 kmh 30.41 in1029.8 mb 0.00 in0.0 mm 0.00 in0.0 mm 0.00 in0.0 mm
08:07 AM 38.5°F3.6°C 11.9°F-11.2°C 33% 2.0 mph 3.2 kmh 3.0 mph4.8 kmh 30.41 in1029.8 mb 0.00 in0.0 mm 0.00 in0.0 mm 0.00 in0.0 mm
08:28 AM 39.0°F3.9°C 13.1°F-10.5°C 34% 3.0 mph 4.8 kmh 4.0 mph6.4 kmh 30.41 in1029.8 mb 0.00 in0.0 mm 0.00 in0.0 mm 0.00 in0.0 mm
08:49 AM 44.8°F7.1°C 10.2°F-12.1°C 24% 2.0 mph 3.2 kmh 4.0 mph6.4 kmh 30.34 in1027.4 mb 0.00 in0.0 mm 0.00 in0.0 mm 0.00 in0.0 mm
09:10 AM 50.0°F10.0°C 13.7°F-10.2°C 23% 1.0 mph 1.6 kmh 2.0 mph3.2 kmh 30.28 in1025.4 mb 0.00 in0.0 mm 0.00 in0.0 mm 0.00 in0.0 mm
09:31 AM 51.3°F10.7°C 13.7°F-10.2°C 22% 2.0 mph W3.2 kmh W 3.0 mph4.8 kmh 30.27 in1025.1 mb 0.00 in0.0 mm 0.00 in0.0 mm 0.00 in0.0 mm
09:52 AM 53.1°F11.7°C 14.2°F-9.9°C 21% Calm Calm 2.0 mph3.2 kmh 30.25 in1024.4 mb 0.00 in0.0 mm 0.00 in0.0 mm 0.00 in0.0 mm
10:13 AM 54.7°F12.6°C 14.4°F-9.8°C 20% 2.0 mph SW3.2 kmh SW 4.0 mph6.4 kmh 30.22 in1023.4 mb 0.00 in0.0 mm 0.00 in0.0 mm 0.00 in0.0 mm
10:34 AM 54.1°F12.3°C 12.8°F-10.7°C 19% 3.0 mph S4.8 kmh S 4.0 mph6.4 kmh 30.23 in1023.7 mb 0.00 in0.0 mm 0.00 in0.0 mm 0.00 in0.0 mm
10:55 AM 55.8°F13.2°C 17.5°F-8.1°C 22% 3.0 mph SW4.8 kmh SW 4.0 mph6.4 kmh 30.21 in1023.0 mb 0.00 in0.0 mm 0.00 in0.0 mm 0.00 in0.0 mm
11:16 AM 57.0°F13.9°C 18.6°F-7.4°C 22% 3.0 mph SW4.8 kmh SW 4.0 mph6.4 kmh 30.18 in1022.0 mb 0.00 in0.0 mm 0.00 in0.0 mm 0.00 in0.0 mm
11:37 AM 56.5°F13.6°C 18.1°F-7.7°C 22% 4.0 mph SW6.4 kmh SW 6.0 mph9.7 kmh 30.19 in1022.4 mb 0.00 in0.0 mm 0.00 in0.0 mm 0.00 in0.0 mm
11:58 AM 57.2°F14.0°C 17.6°F-8.0°C 21% 2.0 mph SW3.2 kmh SW 4.0 mph6.4 kmh 30.18 in1022.0 mb 0.00 in0.0 mm 0.00 in0.0 mm 0.00 in0.0 mm
12:19 PM 58.6°F14.8°C 18.8°F-7.3°C 21% 2.0 mph SW3.2 kmh SW 3.0 mph4.8 kmh 30.16 in1021.3 mb 0.00 in0.0 mm 0.00 in0.0 mm 0.00 in0.0 mm
12:40 PM 58.8°F14.9°C 19.0°F-7.2°C 21% 4.0 mph SW6.4 kmh SW 8.0 mph12.9 kmh 30.16 in1021.3 mb 0.00 in0.0 mm 0.00 in0.0 mm 0.00 in0.0 mm
01:01 PM 59.5°F15.3°C 18.4°F-7.6°C 20% 4.0 mph S6.4 kmh S 6.0 mph9.7 kmh 30.14 in1020.7 mb 0.00 in0.0 mm 0.00 in0.0 mm 0.00 in0.0 mm
01:22 PM 61.0°F16.1°C 17.2°F-8.2°C 18% 7.0 mph W11.3 kmh W 9.0 mph14.5 kmh 30.12 in1020.0 mb 0.00 in0.0 mm 0.00 in0.0 mm 0.00 in0.0 mm
01:43 PM 61.3°F16.3°C 18.7°F-7.4°C 19% 8.0 mph S12.9 kmh S 11.0 mph17.7 kmh 30.11 in1019.6 mb 0.00 in0.0 mm 0.00 in0.0 mm 0.00 in0.0 mm
02:04 PM 60.3°F15.7°C 19.0°F-7.2°C 20% 3.0 mph S4.8 kmh S 6.0 mph9.7 kmh 30.11 in1019.6 mb 0.00 in0.0 mm 0.00 in0.0 mm 0.00 in0.0 mm
02:25 PM 61.9°F16.6°C 19.2°F-7.1°C 19% 9.0 mph S14.5 kmh S 12.0 mph19.3 kmh 30.09 in1019.0 mb 0.00 in0.0 mm 0.00 in0.0 mm 0.00 in0.0 mm
02:46 PM 62.4°F16.9°C 18.4°F-7.6°C 18% 6.0 mph S9.7 kmh S 9.0 mph14.5 kmh 30.08 in1018.6 mb 0.00 in0.0 mm 0.00 in0.0 mm 0.00 in0.0 mm
03:07 PM 63.5°F17.5°C 19.2°F-7.1°C 18% 4.0 mph S6.4 kmh S 6.0 mph9.7 kmh 30.07 in1018.3 mb 0.00 in0.0 mm 0.00 in0.0 mm 0.00 in0.0 mm
03:28 PM 62.6°F17.0°C 18.5°F-7.5°C 18% 8.0 mph S12.9 kmh S 8.0 mph12.9 kmh 30.07 in1018.3 mb 0.00 in0.0 mm 0.00 in0.0 mm 0.00 in0.0 mm
03:49 PM 62.2°F16.8°C 20.7°F-6.3°C 20% 6.0 mph S9.7 kmh S 8.0 mph12.9 kmh 30.08 in1018.6 mb 0.00 in0.0 mm 0.00 in0.0 mm 0.00 in0.0 mm
04:10 PM 61.7°F16.5°C 19.0°F-7.2°C 19% 5.0 mph S8.0 kmh S 7.0 mph11.3 kmh 30.08 in1018.6 mb 0.00 in0.0 mm 0.00 in0.0 mm 0.00 in0.0 mm
04:31 PM 61.3°F16.3°C 19.9°F-6.7°C 20% 2.0 mph S3.2 kmh S 4.0 mph6.4 kmh 30.09 in1019.0 mb 0.00 in0.0 mm 0.00 in0.0 mm 0.00 in0.0 mm
04:42 PM 61.9°F16.6°C 20.4°F-6.4°C 20% 1.0 mph S1.6 kmh S 4.0 mph6.4 kmh 30.08 in1018.6 mb 0.00 in0.0 mm 0.00 in0.0 mm 0.00 in0.0 mm
05:03 PM 62.1°F16.7°C 20.3°F-6.5°C 20% 4.0 mph S6.4 kmh S 5.0 mph8.0 kmh 30.08 in1018.6 mb 0.00 in0.0 mm 0.00 in0.0 mm 0.00 in0.0 mm
05:21 PM 59.0°F15.0°C 20.4°F-6.4°C 22% 1.0 mph S1.6 kmh S 2.0 mph3.2 kmh 30.12 in1020.0 mb 0.00 in0.0 mm 0.00 in0.0 mm 0.00 in0.0 mm
05:42 PM 54.7°F12.6°C 16.6°F-8.6°C 22% 2.0 mph S3.2 kmh S 6.0 mph9.7 kmh 30.17 in1021.7 mb 0.00 in0.0 mm 0.00 in0.0 mm 0.00 in0.0 mm
06:03 PM 52.8°F11.6°C 16.4°F-8.7°C 23% 2.0 mph S3.2 kmh S 5.0 mph8.0 kmh 30.19 in1022.4 mb 0.00 in0.0 mm 0.00 in0.0 mm 0.00 in0.0 mm
06:21 PM 51.6°F10.9°C 16.9°F-8.4°C 25% 2.0 mph S3.2 kmh S 5.0 mph8.0 kmh 30.20 in1022.7 mb 0.00 in0.0 mm 0.00 in0.0 mm 0.00 in0.0 mm
06:42 PM 50.8°F10.4°C 18.5°F-7.5°C 28% 2.0 mph S3.2 kmh S 5.0 mph8.0 kmh 30.22 in1023.4 mb 0.00 in0.0 mm 0.00 in0.0 mm 0.00 in0.0 mm
07:03 PM 49.3°F9.6°C 19.7°F-6.8°C 31% 4.0 mph NNE6.4 kmh NNE 7.0 mph11.3 kmh 30.24 in1024.0 mb 0.00 in0.0 mm 0.00 in0.0 mm 0.00 in0.0 mm
07:21 PM 48.5°F9.2°C 20.7°F-6.3°C 33% 3.0 mph 4.8 kmh 4.0 mph6.4 kmh 30.26 in1024.7 mb 0.00 in0.0 mm 0.00 in0.0 mm 0.00 in0.0 mm
07:42 PM 48.1°F8.9°C 20.2°F-6.6°C 33% 4.0 mph 6.4 kmh 8.0 mph12.9 kmh 30.27 in1025.1 mb 0.00 in0.0 mm 0.00 in0.0 mm 0.00 in0.0 mm
08:03 PM 48.1°F8.9°C 20.1°F-6.6°C 33% 3.0 mph 4.8 kmh 8.0 mph12.9 kmh 30.27 in1025.1 mb 0.00 in0.0 mm 0.00 in0.0 mm 0.00 in0.0 mm
08:21 PM 46.1°F7.8°C 20.8°F-6.2°C 36% 3.0 mph 4.8 kmh 5.0 mph8.0 kmh 30.30 in1026.1 mb 0.00 in0.0 mm 0.00 in0.0 mm 0.00 in0.0 mm
08:42 PM 45.2°F7.3°C 21.6°F-5.8°C 39% 3.0 mph 4.8 kmh 5.0 mph8.0 kmh 30.32 in1026.8 mb 0.00 in0.0 mm 0.00 in0.0 mm 0.00 in0.0 mm
09:03 PM 45.0°F7.2°C 21.9°F-5.6°C 40% 3.0 mph 4.8 kmh 7.0 mph11.3 kmh 30.33 in1027.1 mb 0.00 in0.0 mm 0.00 in0.0 mm 0.00 in0.0 mm
09:21 PM 44.6°F7.0°C 22.0°F-5.6°C 40% 3.0 mph 4.8 kmh 6.0 mph9.7 kmh 30.33 in1027.1 mb 0.00 in0.0 mm 0.00 in0.0 mm 0.00 in0.0 mm
09:42 PM 44.8°F7.1°C 21.4°F-5.9°C 39% 4.0 mph 6.4 kmh 8.0 mph12.9 kmh 30.33 in1027.1 mb 0.00 in0.0 mm 0.00 in0.0 mm 0.00 in0.0 mm
10:03 PM 45.2°F7.3°C 19.6°F-6.9°C 36% 4.0 mph 6.4 kmh 7.0 mph11.3 kmh 30.33 in1027.1 mb 0.00 in0.0 mm 0.00 in0.0 mm 0.00 in0.0 mm
10:42 PM 44.6°F7.0°C 20.9°F-6.2°C 38% 4.0 mph 6.4 kmh 6.0 mph9.7 kmh 30.33 in1027.1 mb 0.00 in0.0 mm 0.00 in0.0 mm 0.00 in0.0 mm
11:03 PM 44.5°F6.9°C 20.1°F-6.6°C 37% 5.0 mph 8.0 kmh 9.0 mph14.5 kmh 30.33 in1027.1 mb 0.00 in0.0 mm 0.00 in0.0 mm 0.00 in0.0 mm
11:21 PM 44.0°F6.7°C 20.8°F-6.2°C 39% 4.0 mph 6.4 kmh 7.0 mph11.3 kmh 30.34 in1027.4 mb 0.00 in0.0 mm 0.00 in0.0 mm 0.00 in0.0 mm
11:42 PM 45.0°F7.2°C 19.1°F-7.2°C 35% 6.0 mph NNW9.7 kmh NNW 11.0 mph17.7 kmh 30.32 in1026.8 mb 0.00 in0.0 mm 0.00 in0.0 mm 0.00 in0.0 mm